sensor_id;sensor_type;location;lat;lon;timestamp;P1;P2;P0
83484;PMS5003;73420;32.678;-85.380;2024-01-30T00:01:23;3;3;
83484;PMS5003;73420;32.678;-85.380;2024-01-30T00:03:49;2;2;
83484;PMS5003;73420;32.678;-85.380;2024-01-30T00:06:19;2;2;
83484;PMS5003;73420;32.678;-85.380;2024-01-30T00:08:40;2;2;
83484;PMS5003;73420;32.678;-85.380;2024-01-30T00:11:05;3;3;
83484;PMS5003;73420;32.678;-85.380;2024-01-30T00:13:31;3;3;
83484;PMS5003;73420;32.678;-85.380;2024-01-30T00:15:56;2;2;
83484;PMS5003;73420;32.678;-85.380;2024-01-30T00:18:22;3;3;
83484;PMS5003;73420;32.678;-85.380;2024-01-30T00:20:47;4;4;
83484;PMS5003;73420;32.678;-85.380;2024-01-30T00:23:13;2;2;
83484;PMS5003;73420;32.678;-85.380;2024-01-30T00:25:38;3;3;
83484;PMS5003;73420;32.678;-85.380;2024-01-30T00:28:04;2;2;
83484;PMS5003;73420;32.678;-85.380;2024-01-30T00:30:29;2;2;
83484;PMS5003;73420;32.678;-85.380;2024-01-30T00:32:55;4;4;
83484;PMS5003;73420;32.678;-85.380;2024-01-30T00:35:20;2;2;
83484;PMS5003;73420;32.678;-85.380;2024-01-30T00:37:46;2;2;
83484;PMS5003;73420;32.678;-85.380;2024-01-30T00:40:11;3;3;
83484;PMS5003;73420;32.678;-85.380;2024-01-30T00:42:37;2;2;
83484;PMS5003;73420;32.678;-85.380;2024-01-30T00:45:03;3;3;
83484;PMS5003;73420;32.678;-85.380;2024-01-30T00:47:28;3;2;
83484;PMS5003;73420;32.678;-85.380;2024-01-30T00:49:53;2;2;
83484;PMS5003;73420;32.678;-85.380;2024-01-30T00:52:19;3;3;
83484;PMS5003;73420;32.678;-85.380;2024-01-30T00:54:45;2;2;
83484;PMS5003;73420;32.678;-85.380;2024-01-30T00:57:10;3;2;
83484;PMS5003;73420;32.678;-85.380;2024-01-30T00:59:36;2;2;
83484;PMS5003;73420;32.678;-85.380;2024-01-30T01:02:01;3;3;
83484;PMS5003;73420;32.678;-85.380;2024-01-30T01:04:27;3;3;
83484;PMS5003;73420;32.678;-85.380;2024-01-30T01:06:52;3;3;
83484;PMS5003;73420;32.678;-85.380;2024-01-30T01:09:18;3;3;
83484;PMS5003;73420;32.678;-85.380;2024-01-30T01:11:43;4;4;
83484;PMS5003;73420;32.678;-85.380;2024-01-30T01:14:09;4;4;
83484;PMS5003;73420;32.678;-85.380;2024-01-30T01:16:35;2;2;
83484;PMS5003;73420;32.678;-85.380;2024-01-30T01:19:02;3;3;
83484;PMS5003;73420;32.678;-85.380;2024-01-30T01:21:25;3;2;
83484;PMS5003;73420;32.678;-85.380;2024-01-30T01:23:51;2;2;
83484;PMS5003;73420;32.678;-85.380;2024-01-30T01:26:17;3;3;
83484;PMS5003;73420;32.678;-85.380;2024-01-30T01:28:42;5;4;
83484;PMS5003;73420;32.678;-85.380;2024-01-30T01:31:08;3;3;
83484;PMS5003;73420;32.678;-85.380;2024-01-30T01:33:33;4;3;
83484;PMS5003;73420;32.678;-85.380;2024-01-30T01:35:59;3;3;
83484;PMS5003;73420;32.678;-85.380;2024-01-30T01:38:24;3;3;
83484;PMS5003;73420;32.678;-85.380;2024-01-30T01:40:50;2;2;
83484;PMS5003;73420;32.678;-85.380;2024-01-30T01:43:17;1;1;
83484;PMS5003;73420;32.678;-85.380;2024-01-30T01:45:41;2;2;
83484;PMS5003;73420;32.678;-85.380;2024-01-30T01:48:07;4;3;
83484;PMS5003;73420;32.678;-85.380;2024-01-30T01:50:32;4;4;
83484;PMS5003;73420;32.678;-85.380;2024-01-30T01:52:58;3;3;
83484;PMS5003;73420;32.678;-85.380;2024-01-30T01:55:24;3;3;
83484;PMS5003;73420;32.678;-85.380;2024-01-30T01:57:49;2;2;
83484;PMS5003;73420;32.678;-85.380;2024-01-30T02:00:16;3;3;
83484;PMS5003;73420;32.678;-85.380;2024-01-30T02:02:40;2;2;
83484;PMS5003;73420;32.678;-85.380;2024-01-30T02:05:06;3;3;
83484;PMS5003;73420;32.678;-85.380;2024-01-30T02:07:33;4;4;
83484;PMS5003;73420;32.678;-85.380;2024-01-30T02:09:57;2;2;
83484;PMS5003;73420;32.678;-85.380;2024-01-30T02:12:22;3;3;
83484;PMS5003;73420;32.678;-85.380;2024-01-30T02:14:48;3;3;
83484;PMS5003;73420;32.678;-85.380;2024-01-30T02:17:13;4;3;
83484;PMS5003;73420;32.678;-85.380;2024-01-30T02:19:39;3;3;
83484;PMS5003;73420;32.678;-85.380;2024-01-30T02:22:05;3;3;
83484;PMS5003;73420;32.678;-85.380;2024-01-30T02:24:30;3;3;
83484;PMS5003;73420;32.678;-85.380;2024-01-30T02:26:56;3;3;
83484;PMS5003;73420;32.678;-85.380;2024-01-30T02:29:21;3;3;
83484;PMS5003;73420;32.678;-85.380;2024-01-30T02:31:47;4;4;
83484;PMS5003;73420;32.678;-85.380;2024-01-30T02:34:13;3;3;
83484;PMS5003;73420;32.678;-85.380;2024-01-30T02:36:38;3;3;
83484;PMS5003;73420;32.678;-85.380;2024-01-30T02:39:04;4;4;
83484;PMS5003;73420;32.678;-85.380;2024-01-30T02:41:29;3;3;
83484;PMS5003;73420;32.678;-85.380;2024-01-30T02:43:55;4;4;
83484;PMS5003;73420;32.678;-85.380;2024-01-30T02:46:21;3;3;
83484;PMS5003;73420;32.678;-85.380;2024-01-30T02:48:46;3;3;
83484;PMS5003;73420;32.678;-85.380;2024-01-30T02:51:12;2;2;
83484;PMS5003;73420;32.678;-85.380;2024-01-30T02:53:37;3;3;
83484;PMS5003;73420;32.678;-85.380;2024-01-30T02:56:04;3;3;
83484;PMS5003;73420;32.678;-85.380;2024-01-30T02:58:29;3;3;
83484;PMS5003;73420;32.678;-85.380;2024-01-30T03:00:54;2;2;
83484;PMS5003;73420;32.678;-85.380;2024-01-30T03:03:20;4;4;
83484;PMS5003;73420;32.678;-85.380;2024-01-30T03:05:45;3;3;
83484;PMS5003;73420;32.678;-85.380;2024-01-30T03:08:11;3;3;
83484;PMS5003;73420;32.678;-85.380;2024-01-30T03:10:38;3;3;
83484;PMS5003;73420;32.678;-85.380;2024-01-30T03:13:02;5;5;
83484;PMS5003;73420;32.678;-85.380;2024-01-30T03:15:28;3;3;
83484;PMS5003;73420;32.678;-85.380;2024-01-30T03:17:53;2;2;
83484;PMS5003;73420;32.678;-85.380;2024-01-30T03:20:24;4;4;
83484;PMS5003;73420;32.678;-85.380;2024-01-30T03:22:45;3;3;
83484;PMS5003;73420;32.678;-85.380;2024-01-30T03:25:10;4;4;
83484;PMS5003;73420;32.678;-85.380;2024-01-30T03:27:36;3;3;
83484;PMS5003;73420;32.678;-85.380;2024-01-30T03:30:02;4;4;
83484;PMS5003;73420;32.678;-85.380;2024-01-30T03:32:29;3;3;
83484;PMS5003;73420;32.678;-85.380;2024-01-30T03:34:53;2;2;
83484;PMS5003;73420;32.678;-85.380;2024-01-30T03:37:18;3;2;
83484;PMS5003;73420;32.678;-85.380;2024-01-30T03:39:44;4;4;
83484;PMS5003;73420;32.678;-85.380;2024-01-30T03:42:10;3;3;
83484;PMS5003;73420;32.678;-85.380;2024-01-30T03:44:37;6;5;
83484;PMS5003;73420;32.678;-85.380;2024-01-30T03:47:01;2;2;
83484;PMS5003;73420;32.678;-85.380;2024-01-30T03:49:26;5;4;
83484;PMS5003;73420;32.678;-85.380;2024-01-30T03:51:52;3;3;
83484;PMS5003;73420;32.678;-85.380;2024-01-30T03:54:18;4;4;
83484;PMS5003;73420;32.678;-85.380;2024-01-30T03:56:43;4;4;
83484;PMS5003;73420;32.678;-85.380;2024-01-30T03:59:09;3;2;
83484;PMS5003;73420;32.678;-85.380;2024-01-30T04:01:34;5;5;
83484;PMS5003;73420;32.678;-85.380;2024-01-30T04:04:00;3;3;
83484;PMS5003;73420;32.678;-85.380;2024-01-30T04:06:26;3;3;
83484;PMS5003;73420;32.678;-85.380;2024-01-30T04:08:52;4;4;
83484;PMS5003;73420;32.678;-85.380;2024-01-30T04:11:18;2;2;
83484;PMS5003;73420;32.678;-85.380;2024-01-30T04:13:43;2;2;
83484;PMS5003;73420;32.678;-85.380;2024-01-30T04:16:08;3;3;
83484;PMS5003;73420;32.678;-85.380;2024-01-30T04:18:34;4;4;
83484;PMS5003;73420;32.678;-85.380;2024-01-30T04:21:00;5;5;
83484;PMS5003;73420;32.678;-85.380;2024-01-30T04:23:25;4;3;
83484;PMS5003;73420;32.678;-85.380;2024-01-30T04:25:51;4;4;
83484;PMS5003;73420;32.678;-85.380;2024-01-30T04:28:16;4;4;
83484;PMS5003;73420;32.678;-85.380;2024-01-30T04:30:42;4;4;
83484;PMS5003;73420;32.678;-85.380;2024-01-30T04:33:11;4;4;
83484;PMS5003;73420;32.678;-85.380;2024-01-30T04:35:33;5;4;
83484;PMS5003;73420;32.678;-85.380;2024-01-30T04:37:59;4;4;
83484;PMS5003;73420;32.678;-85.380;2024-01-30T04:40:25;4;4;
83484;PMS5003;73420;32.678;-85.380;2024-01-30T04:42:50;2;2;
83484;PMS5003;73420;32.678;-85.380;2024-01-30T04:45:16;5;5;
83484;PMS5003;73420;32.678;-85.380;2024-01-30T04:47:41;4;4;
83484;PMS5003;73420;32.678;-85.380;2024-01-30T04:50:07;3;3;
83484;PMS5003;73420;32.678;-85.380;2024-01-30T04:52:33;3;3;
83484;PMS5003;73420;32.678;-85.380;2024-01-30T04:54:59;4;4;
83484;PMS5003;73420;32.678;-85.380;2024-01-30T04:57:24;3;3;
83484;PMS5003;73420;32.678;-85.380;2024-01-30T04:59:50;3;3;
83484;PMS5003;73420;32.678;-85.380;2024-01-30T05:02:15;4;4;
83484;PMS5003;73420;32.678;-85.380;2024-01-30T05:04:41;4;4;
83484;PMS5003;73420;32.678;-85.380;2024-01-30T05:07:07;2;2;
83484;PMS5003;73420;32.678;-85.380;2024-01-30T05:09:34;4;4;
83484;PMS5003;73420;32.678;-85.380;2024-01-30T05:11:58;3;3;
83484;PMS5003;73420;32.678;-85.380;2024-01-30T05:14:24;4;4;
83484;PMS5003;73420;32.678;-85.380;2024-01-30T05:16:49;2;2;
83484;PMS5003;73420;32.678;-85.380;2024-01-30T05:19:15;3;3;
83484;PMS5003;73420;32.678;-85.380;2024-01-30T05:21:41;3;3;
83484;PMS5003;73420;32.678;-85.380;2024-01-30T05:24:06;4;4;
83484;PMS5003;73420;32.678;-85.380;2024-01-30T05:26:32;2;2;
83484;PMS5003;73420;32.678;-85.380;2024-01-30T05:28:58;4;4;
83484;PMS5003;73420;32.678;-85.380;2024-01-30T05:31:23;4;4;
83484;PMS5003;73420;32.678;-85.380;2024-01-30T05:33:49;4;3;
83484;PMS5003;73420;32.678;-85.380;2024-01-30T05:36:15;2;1;
83484;PMS5003;73420;32.678;-85.380;2024-01-30T05:38:40;6;6;
83484;PMS5003;73420;32.678;-85.380;2024-01-30T05:41:06;2;2;
83484;PMS5003;73420;32.678;-85.380;2024-01-30T05:43:32;4;3;
83484;PMS5003;73420;32.678;-85.380;2024-01-30T05:45:57;4;4;
83484;PMS5003;73420;32.678;-85.380;2024-01-30T05:48:23;4;4;
83484;PMS5003;73420;32.678;-85.380;2024-01-30T05:50:48;5;5;
83484;PMS5003;73420;32.678;-85.380;2024-01-30T05:53:14;7;5;
83484;PMS5003;73420;32.678;-85.380;2024-01-30T05:55:40;5;5;
83484;PMS5003;73420;32.678;-85.380;2024-01-30T05:58:06;6;5;
83484;PMS5003;73420;32.678;-85.380;2024-01-30T06:00:31;4;4;
83484;PMS5003;73420;32.678;-85.380;2024-01-30T06:02:57;3;3;
83484;PMS5003;73420;32.678;-85.380;2024-01-30T06:05:22;5;4;
83484;PMS5003;73420;32.678;-85.380;2024-01-30T06:07:48;4;4;
83484;PMS5003;73420;32.678;-85.380;2024-01-30T06:10:17;6;5;
83484;PMS5003;73420;32.678;-85.380;2024-01-30T06:12:39;5;5;
83484;PMS5003;73420;32.678;-85.380;2024-01-30T06:15:05;5;5;
83484;PMS5003;73420;32.678;-85.380;2024-01-30T06:17:31;4;4;
83484;PMS5003;73420;32.678;-85.380;2024-01-30T06:19:56;4;4;
83484;PMS5003;73420;32.678;-85.380;2024-01-30T06:22:24;5;5;
83484;PMS5003;73420;32.678;-85.380;2024-01-30T06:24:48;3;3;
83484;PMS5003;73420;32.678;-85.380;2024-01-30T06:27:14;3;3;
83484;PMS5003;73420;32.678;-85.380;2024-01-30T06:29:39;4;4;
83484;PMS5003;73420;32.678;-85.380;2024-01-30T06:32:05;5;5;
83484;PMS5003;73420;32.678;-85.380;2024-01-30T06:34:34;5;5;
83484;PMS5003;73420;32.678;-85.380;2024-01-30T06:36:56;3;3;
83484;PMS5003;73420;32.678;-85.380;2024-01-30T06:39:22;5;5;
83484;PMS5003;73420;32.678;-85.380;2024-01-30T06:41:48;5;5;
83484;PMS5003;73420;32.678;-85.380;2024-01-30T06:44:13;5;4;
83484;PMS5003;73420;32.678;-85.380;2024-01-30T06:46:39;4;3;
83484;PMS5003;73420;32.678;-85.380;2024-01-30T06:49:05;4;4;
83484;PMS5003;73420;32.678;-85.380;2024-01-30T06:51:30;4;4;
83484;PMS5003;73420;32.678;-85.380;2024-01-30T06:53:56;4;4;
83484;PMS5003;73420;32.678;-85.380;2024-01-30T06:56:22;5;5;
83484;PMS5003;73420;32.678;-85.380;2024-01-30T06:58:48;5;4;
83484;PMS5003;73420;32.678;-85.380;2024-01-30T07:01:13;3;3;
83484;PMS5003;73420;32.678;-85.380;2024-01-30T07:03:39;4;4;
83484;PMS5003;73420;32.678;-85.380;2024-01-30T07:06:04;5;4;
83484;PMS5003;73420;32.678;-85.380;2024-01-30T07:08:30;4;4;
83484;PMS5003;73420;32.678;-85.380;2024-01-30T07:10:56;5;5;
83484;PMS5003;73420;32.678;-85.380;2024-01-30T07:13:22;6;5;
83484;PMS5003;73420;32.678;-85.380;2024-01-30T07:15:47;4;3;
83484;PMS5003;73420;32.678;-85.380;2024-01-30T07:18:13;5;5;
83484;PMS5003;73420;32.678;-85.380;2024-01-30T07:20:39;5;5;
83484;PMS5003;73420;32.678;-85.380;2024-01-30T07:23:09;6;6;
83484;PMS5003;73420;32.678;-85.380;2024-01-30T07:25:30;4;4;
83484;PMS5003;73420;32.678;-85.380;2024-01-30T07:27:56;3;3;
83484;PMS5003;73420;32.678;-85.380;2024-01-30T07:30:21;5;5;
83484;PMS5003;73420;32.678;-85.380;2024-01-30T07:32:47;5;5;
83484;PMS5003;73420;32.678;-85.380;2024-01-30T07:35:13;4;4;
83484;PMS5003;73420;32.678;-85.380;2024-01-30T07:37:38;5;4;
83484;PMS5003;73420;32.678;-85.380;2024-01-30T07:40:05;5;5;
83484;PMS5003;73420;32.678;-85.380;2024-01-30T07:42:30;5;5;
83484;PMS5003;73420;32.678;-85.380;2024-01-30T07:44:55;7;7;
83484;PMS5003;73420;32.678;-85.380;2024-01-30T07:47:24;5;5;
83484;PMS5003;73420;32.678;-85.380;2024-01-30T07:49:47;6;6;
83484;PMS5003;73420;32.678;-85.380;2024-01-30T07:52:13;5;5;
83484;PMS5003;73420;32.678;-85.380;2024-01-30T07:54:38;5;5;
83484;PMS5003;73420;32.678;-85.380;2024-01-30T07:57:04;5;5;
83484;PMS5003;73420;32.678;-85.380;2024-01-30T07:59:30;4;4;
83484;PMS5003;73420;32.678;-85.380;2024-01-30T08:01:55;7;6;
83484;PMS5003;73420;32.678;-85.380;2024-01-30T08:04:21;6;6;
83484;PMS5003;73420;32.678;-85.380;2024-01-30T08:06:46;4;4;
83484;PMS5003;73420;32.678;-85.380;2024-01-30T08:09:12;6;6;
83484;PMS5003;73420;32.678;-85.380;2024-01-30T08:11:41;4;4;
83484;PMS5003;73420;32.678;-85.380;2024-01-30T08:14:04;5;5;
83484;PMS5003;73420;32.678;-85.380;2024-01-30T08:16:29;4;3;
83484;PMS5003;73420;32.678;-85.380;2024-01-30T08:18:55;5;5;
83484;PMS5003;73420;32.678;-85.380;2024-01-30T08:21:21;6;5;
83484;PMS5003;73420;32.678;-85.380;2024-01-30T08:23:47;5;5;
83484;PMS5003;73420;32.678;-85.380;2024-01-30T08:26:12;5;5;
83484;PMS5003;73420;32.678;-85.380;2024-01-30T08:28:38;6;6;
83484;PMS5003;73420;32.678;-85.380;2024-01-30T08:31:04;6;6;
83484;PMS5003;73420;32.678;-85.380;2024-01-30T08:33:29;5;4;
83484;PMS5003;73420;32.678;-85.380;2024-01-30T08:35:58;4;4;
83484;PMS5003;73420;32.678;-85.380;2024-01-30T08:38:21;5;5;
83484;PMS5003;73420;32.678;-85.380;2024-01-30T08:40:46;5;5;
83484;PMS5003;73420;32.678;-85.380;2024-01-30T08:43:12;5;5;
83484;PMS5003;73420;32.678;-85.380;2024-01-30T08:45:38;3;3;
83484;PMS5003;73420;32.678;-85.380;2024-01-30T08:48:05;7;7;
83484;PMS5003;73420;32.678;-85.380;2024-01-30T08:50:29;4;4;
83484;PMS5003;73420;32.678;-85.380;2024-01-30T08:52:55;5;5;
83484;PMS5003;73420;32.678;-85.380;2024-01-30T08:55:21;6;5;
83484;PMS5003;73420;32.678;-85.380;2024-01-30T08:57:46;4;4;
83484;PMS5003;73420;32.678;-85.380;2024-01-30T09:00:13;4;3;
83484;PMS5003;73420;32.678;-85.380;2024-01-30T09:02:38;5;5;
83484;PMS5003;73420;32.678;-85.380;2024-01-30T09:05:04;4;4;
83484;PMS5003;73420;32.678;-85.380;2024-01-30T09:07:29;8;8;
83484;PMS5003;73420;32.678;-85.380;2024-01-30T09:09:55;6;6;
83484;PMS5003;73420;32.678;-85.380;2024-01-30T09:12:21;5;5;
83484;PMS5003;73420;32.678;-85.380;2024-01-30T09:14:47;6;6;
83484;PMS5003;73420;32.678;-85.380;2024-01-30T09:17:12;8;8;
83484;PMS5003;73420;32.678;-85.380;2024-01-30T09:19:37;10;10;
83484;PMS5003;73420;32.678;-85.380;2024-01-30T09:22:03;7;7;
83484;PMS5003;73420;32.678;-85.380;2024-01-30T09:24:29;7;7;
83484;PMS5003;73420;32.678;-85.380;2024-01-30T09:26:55;5;5;
83484;PMS5003;73420;32.678;-85.380;2024-01-30T09:29:21;7;7;
83484;PMS5003;73420;32.678;-85.380;2024-01-30T09:31:46;7;6;
83484;PMS5003;73420;32.678;-85.380;2024-01-30T09:34:12;7;6;
83484;PMS5003;73420;32.678;-85.380;2024-01-30T09:36:41;6;6;
83484;PMS5003;73420;32.678;-85.380;2024-01-30T09:39:03;8;8;
83484;PMS5003;73420;32.678;-85.380;2024-01-30T09:41:29;9;8;
83484;PMS5003;73420;32.678;-85.380;2024-01-30T09:43:55;9;9;
83484;PMS5003;73420;32.678;-85.380;2024-01-30T09:46:20;8;8;
83484;PMS5003;73420;32.678;-85.380;2024-01-30T09:48:46;10;10;
83484;PMS5003;73420;32.678;-85.380;2024-01-30T09:51:12;7;7;
83484;PMS5003;73420;32.678;-85.380;2024-01-30T09:53:39;7;7;
83484;PMS5003;73420;32.678;-85.380;2024-01-30T09:56:03;9;9;
83484;PMS5003;73420;32.678;-85.380;2024-01-30T09:58:29;5;5;
83484;PMS5003;73420;32.678;-85.380;2024-01-30T10:00:57;7;7;
83484;PMS5003;73420;32.678;-85.380;2024-01-30T10:03:20;9;9;
83484;PMS5003;73420;32.678;-85.380;2024-01-30T10:05:46;7;5;
83484;PMS5003;73420;32.678;-85.380;2024-01-30T10:08:12;9;8;
83484;PMS5003;73420;32.678;-85.380;2024-01-30T10:10:37;7;7;
83484;PMS5003;73420;32.678;-85.380;2024-01-30T10:13:06;7;7;
83484;PMS5003;73420;32.678;-85.380;2024-01-30T10:15:28;8;8;
83484;PMS5003;73420;32.678;-85.380;2024-01-30T10:17:54;10;10;
83484;PMS5003;73420;32.678;-85.380;2024-01-30T10:20:20;10;9;
83484;PMS5003;73420;32.678;-85.380;2024-01-30T10:22:46;7;7;
83484;PMS5003;73420;32.678;-85.380;2024-01-30T10:25:14;8;8;
83484;PMS5003;73420;32.678;-85.380;2024-01-30T10:27:36;14;13;
83484;PMS5003;73420;32.678;-85.380;2024-01-30T10:30:02;8;8;
83484;PMS5003;73420;32.678;-85.380;2024-01-30T10:32:28;7;7;
83484;PMS5003;73420;32.678;-85.380;2024-01-30T10:34:54;9;8;
83484;PMS5003;73420;32.678;-85.380;2024-01-30T10:37:20;10;10;
83484;PMS5003;73420;32.678;-85.380;2024-01-30T10:39:45;9;8;
83484;PMS5003;73420;32.678;-85.380;2024-01-30T10:42:11;7;7;
83484;PMS5003;73420;32.678;-85.380;2024-01-30T10:44:39;8;8;
83484;PMS5003;73420;32.678;-85.380;2024-01-30T10:47:03;11;11;
83484;PMS5003;73420;32.678;-85.380;2024-01-30T10:49:32;9;9;
83484;PMS5003;73420;32.678;-85.380;2024-01-30T10:51:53;11;8;
83484;PMS5003;73420;32.678;-85.380;2024-01-30T10:54:19;10;10;
83484;PMS5003;73420;32.678;-85.380;2024-01-30T10:56:44;10;10;
83484;PMS5003;73420;32.678;-85.380;2024-01-30T10:59:10;9;9;
83484;PMS5003;73420;32.678;-85.380;2024-01-30T11:01:35;12;9;
83484;PMS5003;73420;32.678;-85.380;2024-01-30T11:04:01;8;8;
83484;PMS5003;73420;32.678;-85.380;2024-01-30T11:06:27;9;9;
83484;PMS5003;73420;32.678;-85.380;2024-01-30T11:09:01;8;7;
83484;PMS5003;73420;32.678;-85.380;2024-01-30T11:11:18;7;7;
83484;PMS5003;73420;32.678;-85.380;2024-01-30T11:13:44;9;9;
83484;PMS5003;73420;32.678;-85.380;2024-01-30T11:16:10;9;9;
83484;PMS5003;73420;32.678;-85.380;2024-01-30T11:18:35;7;7;
83484;PMS5003;73420;32.678;-85.380;2024-01-30T11:21:01;9;8;
83484;PMS5003;73420;32.678;-85.380;2024-01-30T11:23:27;8;7;
83484;PMS5003;73420;32.678;-85.380;2024-01-30T11:25:55;7;7;
83484;PMS5003;73420;32.678;-85.380;2024-01-30T11:28:18;8;8;
83484;PMS5003;73420;32.678;-85.380;2024-01-30T11:30:44;8;8;
83484;PMS5003;73420;32.678;-85.380;2024-01-30T11:33:11;8;8;
83484;PMS5003;73420;32.678;-85.380;2024-01-30T11:35:36;7;7;
83484;PMS5003;73420;32.678;-85.380;2024-01-30T11:38:03;8;8;
83484;PMS5003;73420;32.678;-85.380;2024-01-30T11:40:27;9;9;
83484;PMS5003;73420;32.678;-85.380;2024-01-30T11:42:53;12;10;
83484;PMS5003;73420;32.678;-85.380;2024-01-30T11:45:18;9;8;
83484;PMS5003;73420;32.678;-85.380;2024-01-30T11:47:44;9;9;
83484;PMS5003;73420;32.678;-85.380;2024-01-30T11:50:14;10;10;
83484;PMS5003;73420;32.678;-85.380;2024-01-30T11:52:35;11;11;
83484;PMS5003;73420;32.678;-85.380;2024-01-30T11:55:01;8;8;
83484;PMS5003;73420;32.678;-85.380;2024-01-30T11:57:27;11;9;
83484;PMS5003;73420;32.678;-85.380;2024-01-30T11:59:52;11;11;
83484;PMS5003;73420;32.678;-85.380;2024-01-30T12:02:18;11;10;
83484;PMS5003;73420;32.678;-85.380;2024-01-30T12:04:43;10;10;
83484;PMS5003;73420;32.678;-85.380;2024-01-30T12:07:09;12;11;
83484;PMS5003;73420;32.678;-85.380;2024-01-30T12:09:35;11;11;
83484;PMS5003;73420;32.678;-85.380;2024-01-30T12:12:01;9;9;
83484;PMS5003;73420;32.678;-85.380;2024-01-30T12:14:27;9;9;
83484;PMS5003;73420;32.678;-85.380;2024-01-30T12:16:52;11;11;
83484;PMS5003;73420;32.678;-85.380;2024-01-30T12:19:22;10;9;
83484;PMS5003;73420;32.678;-85.380;2024-01-30T12:21:43;10;10;
83484;PMS5003;73420;32.678;-85.380;2024-01-30T12:24:08;9;9;
83484;PMS5003;73420;32.678;-85.380;2024-01-30T12:26:38;12;12;
83484;PMS5003;73420;32.678;-85.380;2024-01-30T12:29:00;9;9;
83484;PMS5003;73420;32.678;-85.380;2024-01-30T12:31:26;9;9;
83484;PMS5003;73420;32.678;-85.380;2024-01-30T12:33:51;11;11;
83484;PMS5003;73420;32.678;-85.380;2024-01-30T12:36:17;12;12;
83484;PMS5003;73420;32.678;-85.380;2024-01-30T12:38:48;12;12;
83484;PMS5003;73420;32.678;-85.380;2024-01-30T12:41:08;14;14;
83484;PMS5003;73420;32.678;-85.380;2024-01-30T12:43:34;14;12;
83484;PMS5003;73420;32.678;-85.380;2024-01-30T12:45:59;12;12;
83484;PMS5003;73420;32.678;-85.380;2024-01-30T12:48:25;12;10;
83484;PMS5003;73420;32.678;-85.380;2024-01-30T12:50:54;11;11;
83484;PMS5003;73420;32.678;-85.380;2024-01-30T12:53:16;9;9;
83484;PMS5003;73420;32.678;-85.380;2024-01-30T12:55:42;11;11;
83484;PMS5003;73420;32.678;-85.380;2024-01-30T12:58:08;11;11;
83484;PMS5003;73420;32.678;-85.380;2024-01-30T13:00:33;11;10;
83484;PMS5003;73420;32.678;-85.380;2024-01-30T13:02:59;12;12;
83484;PMS5003;73420;32.678;-85.380;2024-01-30T13:05:24;13;12;
83484;PMS5003;73420;32.678;-85.380;2024-01-30T13:07:50;11;11;
83484;PMS5003;73420;32.678;-85.380;2024-01-30T13:10:16;9;9;
83484;PMS5003;73420;32.678;-85.380;2024-01-30T13:12:43;10;9;
83484;PMS5003;73420;32.678;-85.380;2024-01-30T13:15:09;11;10;
83484;PMS5003;73420;32.678;-85.380;2024-01-30T13:17:33;12;12;
83484;PMS5003;73420;32.678;-85.380;2024-01-30T13:19:58;13;10;
83484;PMS5003;73420;32.678;-85.380;2024-01-30T13:22:24;10;9;
83484;PMS5003;73420;32.678;-85.380;2024-01-30T13:24:50;9;9;
83484;PMS5003;73420;32.678;-85.380;2024-01-30T13:27:16;12;11;
83484;PMS5003;73420;32.678;-85.380;2024-01-30T13:29:41;10;10;
83484;PMS5003;73420;32.678;-85.380;2024-01-30T13:32:06;9;9;
83484;PMS5003;73420;32.678;-85.380;2024-01-30T13:34:32;9;9;
83484;PMS5003;73420;32.678;-85.380;2024-01-30T13:36:57;10;10;
83484;PMS5003;73420;32.678;-85.380;2024-01-30T13:39:25;7;7;
83484;PMS5003;73420;32.678;-85.380;2024-01-30T13:41:48;10;10;
83484;PMS5003;73420;32.678;-85.380;2024-01-30T13:44:14;9;9;
83484;PMS5003;73420;32.678;-85.380;2024-01-30T13:46:39;8;8;
83484;PMS5003;73420;32.678;-85.380;2024-01-30T13:49:05;10;9;
83484;PMS5003;73420;32.678;-85.380;2024-01-30T13:51:31;9;9;
83484;PMS5003;73420;32.678;-85.380;2024-01-30T13:53:56;9;8;
83484;PMS5003;73420;32.678;-85.380;2024-01-30T13:56:22;10;10;
83484;PMS5003;73420;32.678;-85.380;2024-01-30T13:58:48;6;6;
83484;PMS5003;73420;32.678;-85.380;2024-01-30T14:01:13;10;10;
83484;PMS5003;73420;32.678;-85.380;2024-01-30T14:03:40;10;9;
83484;PMS5003;73420;32.678;-85.380;2024-01-30T14:06:04;8;8;
83484;PMS5003;73420;32.678;-85.380;2024-01-30T14:08:30;12;11;
83484;PMS5003;73420;32.678;-85.380;2024-01-30T14:10:55;9;9;
83484;PMS5003;73420;32.678;-85.380;2024-01-30T14:13:21;9;9;
83484;PMS5003;73420;32.678;-85.380;2024-01-30T14:15:48;7;7;
83484;PMS5003;73420;32.678;-85.380;2024-01-30T14:18:12;13;10;
83484;PMS5003;73420;32.678;-85.380;2024-01-30T14:20:38;10;10;
83484;PMS5003;73420;32.678;-85.380;2024-01-30T14:23:03;8;8;
83484;PMS5003;73420;32.678;-85.380;2024-01-30T14:25:29;7;6;
83484;PMS5003;73420;32.678;-85.380;2024-01-30T14:27:58;7;7;
83484;PMS5003;73420;32.678;-85.380;2024-01-30T14:30:20;9;9;
83484;PMS5003;73420;32.678;-85.380;2024-01-30T14:32:45;12;12;
83484;PMS5003;73420;32.678;-85.380;2024-01-30T14:35:10;7;7;
83484;PMS5003;73420;32.678;-85.380;2024-01-30T14:37:36;8;8;
83484;PMS5003;73420;32.678;-85.380;2024-01-30T14:40:03;7;7;
83484;PMS5003;73420;32.678;-85.380;2024-01-30T14:42:27;8;8;
83484;PMS5003;73420;32.678;-85.380;2024-01-30T14:44:52;6;6;
83484;PMS5003;73420;32.678;-85.380;2024-01-30T14:47:18;7;7;
83484;PMS5003;73420;32.678;-85.380;2024-01-30T14:49:43;5;4;
83484;PMS5003;73420;32.678;-85.380;2024-01-30T14:52:11;8;8;
83484;PMS5003;73420;32.678;-85.380;2024-01-30T14:54:34;7;6;
83484;PMS5003;73420;32.678;-85.380;2024-01-30T14:57:00;6;6;
83484;PMS5003;73420;32.678;-85.380;2024-01-30T14:59:25;7;7;
83484;PMS5003;73420;32.678;-85.380;2024-01-30T15:01:51;4;4;
83484;PMS5003;73420;32.678;-85.380;2024-01-30T15:04:17;7;6;
83484;PMS5003;73420;32.678;-85.380;2024-01-30T15:06:42;5;5;
83484;PMS5003;73420;32.678;-85.380;2024-01-30T15:09:07;6;6;
83484;PMS5003;73420;32.678;-85.380;2024-01-30T15:11:32;9;7;
83484;PMS5003;73420;32.678;-85.380;2024-01-30T15:13:58;7;7;
83484;PMS5003;73420;32.678;-85.380;2024-01-30T15:16:24;7;7;
83484;PMS5003;73420;32.678;-85.380;2024-01-30T15:18:49;5;5;
83484;PMS5003;73420;32.678;-85.380;2024-01-30T15:21:14;5;5;
83484;PMS5003;73420;32.678;-85.380;2024-01-30T15:23:40;6;6;
83484;PMS5003;73420;32.678;-85.380;2024-01-30T15:26:05;8;8;
83484;PMS5003;73420;32.678;-85.380;2024-01-30T15:28:36;6;6;
83484;PMS5003;73420;32.678;-85.380;2024-01-30T15:30:56;5;5;
83484;PMS5003;73420;32.678;-85.380;2024-01-30T15:33:21;7;7;
83484;PMS5003;73420;32.678;-85.380;2024-01-30T15:35:47;5;5;
83484;PMS5003;73420;32.678;-85.380;2024-01-30T15:38:12;5;5;
83484;PMS5003;73420;32.678;-85.380;2024-01-30T15:40:38;5;5;
83484;PMS5003;73420;32.678;-85.380;2024-01-30T15:43:03;6;6;
83484;PMS5003;73420;32.678;-85.380;2024-01-30T15:45:29;4;4;
83484;PMS5003;73420;32.678;-85.380;2024-01-30T15:47:54;6;6;
83484;PMS5003;73420;32.678;-85.380;2024-01-30T15:50:20;5;5;
83484;PMS5003;73420;32.678;-85.380;2024-01-30T15:52:45;5;4;
83484;PMS5003;73420;32.678;-85.380;2024-01-30T15:55:10;6;5;
83484;PMS5003;73420;32.678;-85.380;2024-01-30T15:57:36;7;7;
83484;PMS5003;73420;32.678;-85.380;2024-01-30T16:00:01;5;5;
83484;PMS5003;73420;32.678;-85.380;2024-01-30T16:02:27;4;4;